Time;durP1;ratioP1;P1;durP2;ratioP2;P2;SDS_P1;SDS_P2;PMS_P1;PMS_P2;Temp;Humidity;BMP_temperature;BMP_pressure;BME280_temperature;BME280_humidity;BME280_pressure;Samples;Min_cycle;Max_cycle;Signal;HPM_P1;HPM_P2
2024/04/08 00:00:20;;;;;;;4.60;1.35;;;;;;;;;;5540280;25;20444;-53
2024/04/08 00:02:46;;;;;;;3.92;1.27;;;;;;;;;;5539514;25;20012;-48
2024/04/08 00:05:11;;;;;;;4.10;1.40;;;;;;;;;;5540482;25;20001;-51
2024/04/08 00:07:36;;;;;;;5.20;1.30;;;;;;;;;;5540016;25;20001;-48
2024/04/08 00:10:02;;;;;;;4.72;1.25;;;;;;;;;;5539511;25;20009;-56
2024/04/08 00:12:28;;;;;;;4.10;1.10;;;;;;;;;;5506331;25;20009;-49
2024/04/08 00:14:53;;;;;;;5.80;1.45;;;;;;;;;;5540066;25;20001;-48
2024/04/08 00:17:19;;;;;;;3.28;1.20;;;;;;;;;;5539251;25;20694;-54
2024/04/08 00:19:44;;;;;;;4.90;1.42;;;;;;;;;;5507340;25;20508;-49
2024/04/08 00:22:09;;;;;;;3.50;1.20;;;;;;;;;;5539964;25;20008;-53
2024/04/08 00:24:35;;;;;;;4.40;1.52;;;;;;;;;;5527732;25;20011;-52
2024/04/08 00:27:00;;;;;;;3.92;1.42;;;;;;;;;;5508848;26;20012;-50
2024/04/08 00:29:26;;;;;;;3.85;1.30;;;;;;;;;;5523898;26;20016;-47
2024/04/08 00:31:52;;;;;;;2.75;1.10;;;;;;;;;;5485008;26;20002;-51
2024/04/08 00:34:18;;;;;;;4.10;1.13;;;;;;;;;;5518507;26;20073;-53
2024/04/08 00:36:43;;;;;;;2.63;0.90;;;;;;;;;;5508671;26;20008;-49
2024/04/08 00:39:09;;;;;;;3.92;1.52;;;;;;;;;;5522655;26;20004;-52
2024/04/08 00:41:34;;;;;;;3.40;1.33;;;;;;;;;;5522961;26;20026;-50
2024/04/08 00:43:59;;;;;;;3.42;1.23;;;;;;;;;;5523854;26;20001;-50
2024/04/08 00:46:25;;;;;;;3.80;1.25;;;;;;;;;;5523840;26;20016;-52
2024/04/08 00:48:55;;;;;;;3.17;1.10;;;;;;;;;;5523025;26;20408;-55
2024/04/08 00:51:20;;;;;;;4.32;1.10;;;;;;;;;;5522841;26;20012;-51
2024/04/08 00:53:48;;;;;;;2.42;0.90;;;;;;;;;;5523363;26;19997;-52
2024/04/08 00:56:14;;;;;;;4.95;1.33;;;;;;;;;;5487401;26;20017;-53
2024/04/08 00:58:39;;;;;;;3.15;1.23;;;;;;;;;;5522996;26;20005;-49
2024/04/08 01:01:05;;;;;;;3.67;1.20;;;;;;;;;;5523482;26;20021;-53
2024/04/08 01:03:31;;;;;;;4.05;1.50;;;;;;;;;;5523230;26;20481;-53
2024/04/08 01:05:57;;;;;;;3.50;1.13;;;;;;;;;;5488734;26;20012;-52
2024/04/08 01:08:23;;;;;;;4.28;1.30;;;;;;;;;;5523375;26;20073;-50
2024/04/08 01:10:48;;;;;;;4.28;1.45;;;;;;;;;;5523300;26;20004;-50
2024/04/08 01:13:14;;;;;;;3.17;1.10;;;;;;;;;;5519507;26;20001;-52
2024/04/08 01:15:39;;;;;;;4.05;0.95;;;;;;;;;;5523557;26;20012;-53
2024/04/08 01:18:05;;;;;;;4.47;1.20;;;;;;;;;;5484697;26;20025;-53
2024/04/08 01:20:30;;;;;;;2.50;1.02;;;;;;;;;;5517319;26;20008;-49
2024/04/08 01:22:56;;;;;;;2.78;1.00;;;;;;;;;;5522949;26;20113;-49
2024/04/08 01:25:21;;;;;;;2.50;1.02;;;;;;;;;;5523126;26;20005;-50
2024/04/08 01:27:47;;;;;;;4.25;1.20;;;;;;;;;;5522883;26;19993;-55
2024/04/08 01:30:12;;;;;;;3.25;1.10;;;;;;;;;;5522419;26;20337;-49
2024/04/08 01:32:37;;;;;;;5.97;1.38;;;;;;;;;;5522703;26;20377;-52
2024/04/08 01:35:03;;;;;;;3.90;1.42;;;;;;;;;;5522797;26;19997;-53
2024/04/08 01:37:29;;;;;;;4.18;1.13;;;;;;;;;;5521433;26;20046;-54
2024/04/08 01:39:54;;;;;;;3.85;1.27;;;;;;;;;;5522761;26;20388;-53
2024/04/08 01:42:19;;;;;;;3.95;1.17;;;;;;;;;;5522771;26;19994;-51
2024/04/08 01:44:45;;;;;;;2.72;1.13;;;;;;;;;;5521889;26;20012;-53
2024/04/08 01:47:11;;;;;;;4.13;1.20;;;;;;;;;;5522934;26;20033;-52
2024/04/08 01:49:36;;;;;;;4.20;1.10;;;;;;;;;;5520472;26;20457;-51
2024/04/08 01:52:01;;;;;;;4.18;1.10;;;;;;;;;;5522190;26;20073;-51
2024/04/08 01:54:27;;;;;;;3.97;1.20;;;;;;;;;;5522302;26;20070;-52
2024/04/08 01:56:52;;;;;;;2.70;0.90;;;;;;;;;;5521814;26;20336;-50
2024/04/08 01:59:17;;;;;;;2.75;0.98;;;;;;;;;;5521772;26;20002;-52
2024/04/08 02:01:43;;;;;;;3.60;1.10;;;;;;;;;;5521494;26;19997;-53
2024/04/08 02:04:08;;;;;;;4.00;1.05;;;;;;;;;;5519213;26;20008;-52
2024/04/08 02:06:33;;;;;;;5.65;1.30;;;;;;;;;;5522586;26;20006;-54
2024/04/08 02:08:59;;;;;;;3.45;1.08;;;;;;;;;;5521753;26;19997;-60
2024/04/08 02:11:24;;;;;;;4.22;1.25;;;;;;;;;;5519653;26;20047;-56
2024/04/08 02:13:49;;;;;;;3.38;1.30;;;;;;;;;;5522075;26;20448;-59
2024/04/08 02:16:15;;;;;;;4.35;1.02;;;;;;;;;;5521559;26;20062;-61
2024/04/08 02:18:40;;;;;;;3.58;1.20;;;;;;;;;;5522468;26;20490;-58
2024/04/08 02:21:11;;;;;;;2.08;0.90;;;;;;;;;;5522363;26;20436;-59
2024/04/08 02:23:37;;;;;;;3.78;1.23;;;;;;;;;;5489579;26;20425;-59
2024/04/08 02:26:03;;;;;;;3.53;1.23;;;;;;;;;;5521925;26;19997;-54
2024/04/08 02:28:29;;;;;;;3.50;1.10;;;;;;;;;;5522243;26;20012;-52
2024/04/08 02:31:00;;;;;;;6.35;1.17;;;;;;;;;;5521910;26;20009;-54
2024/04/08 02:33:25;;;;;;;3.95;1.27;;;;;;;;;;5489061;26;20696;-50
2024/04/08 02:35:51;;;;;;;4.68;1.00;;;;;;;;;;5522332;26;20004;-55
2024/04/08 02:38:16;;;;;;;5.05;1.13;;;;;;;;;;5522000;26;19997;-51
2024/04/08 02:40:41;;;;;;;2.90;1.40;;;;;;;;;;5521272;26;20009;-48
2024/04/08 02:43:07;;;;;;;4.10;1.05;;;;;;;;;;5520990;26;19993;-52
2024/04/08 02:45:32;;;;;;;4.20;1.30;;;;;;;;;;5521963;26;20002;-49
2024/04/08 02:47:58;;;;;;;3.53;1.00;;;;;;;;;;5520259;26;20504;-52
2024/04/08 02:50:23;;;;;;;4.22;1.38;;;;;;;;;;5521786;26;20441;-50
2024/04/08 02:52:49;;;;;;;2.85;1.00;;;;;;;;;;5519976;26;20551;-53
2024/04/08 02:55:14;;;;;;;3.60;0.93;;;;;;;;;;5521341;26;20006;-50
2024/04/08 02:57:39;;;;;;;5.65;1.20;;;;;;;;;;5521357;26;19997;-50
2024/04/08 03:00:05;;;;;;;4.20;1.17;;;;;;;;;;5521439;26;20073;-52
2024/04/08 03:02:30;;;;;;;2.88;0.95;;;;;;;;;;5521214;26;20350;-49
2024/04/08 03:04:56;;;;;;;4.60;1.15;;;;;;;;;;5520658;26;19998;-52
2024/04/08 03:07:21;;;;;;;3.90;1.08;;;;;;;;;;5521625;26;20001;-51
2024/04/08 03:09:51;;;;;;;3.05;1.00;;;;;;;;;;5518124;26;19997;-52
2024/04/08 03:12:16;;;;;;;4.90;1.40;;;;;;;;;;5503957;26;20368;-50
2024/04/08 03:14:41;;;;;;;3.40;1.13;;;;;;;;;;5520335;26;19998;-52
2024/04/08 03:17:07;;;;;;;3.53;1.08;;;;;;;;;;5521240;26;20001;-53
2024/04/08 03:19:32;;;;;;;4.85;1.30;;;;;;;;;;5520953;26;19993;-50
2024/04/08 03:21:57;;;;;;;3.08;1.05;;;;;;;;;;5521117;26;20069;-52
2024/04/08 03:24:23;;;;;;;3.08;1.02;;;;;;;;;;5521268;26;20398;-52
2024/04/08 03:26:48;;;;;;;3.90;1.10;;;;;;;;;;5519985;26;20318;-49
2024/04/08 03:29:13;;;;;;;3.13;1.23;;;;;;;;;;5520738;26;20001;-51
2024/04/08 03:31:39;;;;;;;5.45;1.10;;;;;;;;;;5520913;26;20005;-53
2024/04/08 03:34:04;;;;;;;4.55;1.08;;;;;;;;;;5521183;26;20324;-51
2024/04/08 03:36:30;;;;;;;3.92;1.27;;;;;;;;;;5520272;26;20437;-51
2024/04/08 03:38:55;;;;;;;3.63;1.23;;;;;;;;;;5521040;26;20035;-51
2024/04/08 03:41:20;;;;;;;2.92;1.23;;;;;;;;;;5521084;26;20425;-56
2024/04/08 03:43:46;;;;;;;3.38;1.40;;;;;;;;;;5520111;26;20037;-61
2024/04/08 03:46:11;;;;;;;5.47;1.23;;;;;;;;;;5520936;26;20321;-54
2024/04/08 03:48:37;;;;;;;5.03;0.93;;;;;;;;;;5520597;26;20004;-57
2024/04/08 03:51:12;;;;;;;3.63;1.02;;;;;;;;;;5520435;26;19994;-60
2024/04/08 03:53:37;;;;;;;3.53;1.08;;;;;;;;;;5481912;26;20010;-51
2024/04/08 03:56:07;;;;;;;3.58;1.10;;;;;;;;;;5520660;26;20073;-60
2024/04/08 03:58:33;;;;;;;2.75;1.13;;;;;;;;;;5520608;26;20452;-62
2024/04/08 04:00:59;;;;;;;4.63;1.10;;;;;;;;;;5523698;25;19997;-60
2024/04/08 04:03:25;;;;;;;3.17;1.20;;;;;;;;;;5520168;26;20669;-60
2024/04/08 04:05:50;;;;;;;3.75;1.20;;;;;;;;;;5524375;26;20012;-59
2024/04/08 04:08:16;;;;;;;3.65;1.10;;;;;;;;;;5523263;26;20559;-55
2024/04/08 04:10:41;;;;;;;2.85;0.90;;;;;;;;;;5524050;26;20383;-54
2024/04/08 04:13:07;;;;;;;3.55;1.13;;;;;;;;;;5524081;26;20429;-52
2024/04/08 04:15:33;;;;;;;3.08;1.00;;;;;;;;;;5521218;26;20017;-49
2024/04/08 04:18:00;;;;;;;3.28;1.10;;;;;;;;;;5524164;26;20016;-53
2024/04/08 04:20:28;;;;;;;4.90;0.93;;;;;;;;;;5524020;26;20009;-50
2024/04/08 04:22:53;;;;;;;6.75;1.55;;;;;;;;;;5521576;26;20009;-51
2024/04/08 04:25:18;;;;;;;4.82;1.40;;;;;;;;;;5523684;26;20062;-49
2024/04/08 04:27:44;;;;;;;4.28;1.30;;;;;;;;;;5523845;26;20009;-53
2024/04/08 04:30:09;;;;;;;3.47;0.90;;;;;;;;;;5522252;25;20025;-50
2024/04/08 04:32:35;;;;;;;3.35;1.20;;;;;;;;;;5523043;26;20004;-51
2024/04/08 04:35:00;;;;;;;3.85;1.10;;;;;;;;;;5523589;26;20006;-51
2024/04/08 04:37:25;;;;;;;2.42;0.88;;;;;;;;;;5523969;26;20464;-49
2024/04/08 04:39:51;;;;;;;4.15;1.02;;;;;;;;;;5522864;26;20008;-52
2024/04/08 04:42:17;;;;;;;3.05;0.95;;;;;;;;;;5523503;26;20014;-52
2024/04/08 04:44:42;;;;;;;2.38;0.75;;;;;;;;;;5523225;26;20101;-53
2024/04/08 04:47:07;;;;;;;2.95;1.00;;;;;;;;;;5522808;26;20012;-50
2024/04/08 04:49:33;;;;;;;4.40;1.25;;;;;;;;;;5523659;26;19994;-50
2024/04/08 04:51:59;;;;;;;3.85;1.23;;;;;;;;;;5523478;26;19997;-53
2024/04/08 04:54:24;;;;;;;3.17;0.77;;;;;;;;;;5523332;26;20302;-52
2024/04/08 04:56:50;;;;;;;4.55;1.33;;;;;;;;;;5523243;26;20074;-51
2024/04/08 04:59:15;;;;;;;5.13;1.00;;;;;;;;;;5523444;26;20000;-51
2024/04/08 05:01:40;;;;;;;4.88;1.20;;;;;;;;;;5523132;26;19997;-49
2024/04/08 05:04:06;;;;;;;4.10;1.23;;;;;;;;;;5522853;26;20065;-58
2024/04/08 05:06:31;;;;;;;3.42;1.23;;;;;;;;;;5518219;26;19997;-58
2024/04/08 05:08:58;;;;;;;3.33;1.00;;;;;;;;;;5512860;26;19997;-53
2024/04/08 05:11:23;;;;;;;3.03;0.93;;;;;;;;;;5522254;26;20418;-60
2024/04/08 05:13:49;;;;;;;3.78;1.02;;;;;;;;;;5523188;26;20001;-61
2024/04/08 05:16:14;;;;;;;3.22;1.00;;;;;;;;;;5523227;26;20005;-50
2024/04/08 05:18:39;;;;;;;2.83;1.00;;;;;;;;;;5522455;26;20405;-52
2024/04/08 05:21:05;;;;;;;4.07;1.27;;;;;;;;;;5523213;26;19993;-53
2024/04/08 05:23:31;;;;;;;5.30;1.27;;;;;;;;;;5523202;26;19994;-50
2024/04/08 05:25:57;;;;;;;3.50;0.98;;;;;;;;;;5522872;26;19993;-52
2024/04/08 05:28:22;;;;;;;3.20;1.02;;;;;;;;;;5487947;26;19994;-51
2024/04/08 05:30:49;;;;;;;3.75;1.00;;;;;;;;;;5523004;26;19997;-52
2024/04/08 05:33:15;;;;;;;2.80;0.77;;;;;;;;;;5490340;26;20069;-50
2024/04/08 05:35:41;;;;;;;3.30;1.00;;;;;;;;;;5522374;26;20005;-49
2024/04/08 05:38:09;;;;;;;2.85;0.73;;;;;;;;;;5522974;26;20425;-52
2024/04/08 05:40:35;;;;;;;4.65;1.02;;;;;;;;;;5523053;26;19993;-50
2024/04/08 05:43:01;;;;;;;3.78;1.10;;;;;;;;;;5458072;26;20006;-52
2024/04/08 05:45:27;;;;;;;2.65;1.00;;;;;;;;;;5522858;26;20008;-50
2024/04/08 05:47:55;;;;;;;3.60;0.90;;;;;;;;;;5522907;26;20073;-51
2024/04/08 05:50:20;;;;;;;2.58;1.02;;;;;;;;;;5522054;26;20457;-49
2024/04/08 05:52:46;;;;;;;4.97;1.20;;;;;;;;;;5522819;26;20009;-52
2024/04/08 05:55:11;;;;;;;2.85;0.95;;;;;;;;;;5522811;26;19993;-52
2024/04/08 05:57:37;;;;;;;2.78;0.80;;;;;;;;;;5522419;26;19994;-52
2024/04/08 06:00:02;;;;;;;3.10;1.10;;;;;;;;;;5522043;26;20001;-54
2024/04/08 06:02:28;;;;;;;2.38;0.82;;;;;;;;;;5522770;26;20001;-49
2024/04/08 06:04:53;;;;;;;3.50;1.05;;;;;;;;;;5519800;26;20065;-52
2024/04/08 06:07:18;;;;;;;5.70;1.20;;;;;;;;;;5521604;26;20002;-49
2024/04/08 06:09:44;;;;;;;4.47;1.05;;;;;;;;;;5522673;26;20009;-52
2024/04/08 06:12:10;;;;;;;2.50;0.80;;;;;;;;;;5522175;26;20410;-60
2024/04/08 06:14:35;;;;;;;1.90;0.82;;;;;;;;;;5521908;26;20034;-60
2024/04/08 06:17:00;;;;;;;2.80;0.88;;;;;;;;;;5522443;26;20329;-60
2024/04/08 06:19:26;;;;;;;3.38;1.02;;;;;;;;;;5517392;26;20013;-60
2024/04/08 06:21:52;;;;;;;4.07;0.95;;;;;;;;;;5519840;26;20013;-60
2024/04/08 06:24:17;;;;;;;2.65;1.10;;;;;;;;;;5521795;26;20017;-59
2024/04/08 06:26:42;;;;;;;3.20;0.88;;;;;;;;;;5521813;26;20009;-60
2024/04/08 06:29:08;;;;;;;3.08;0.93;;;;;;;;;;5521537;26;20002;-60
2024/04/08 06:31:33;;;;;;;2.72;1.10;;;;;;;;;;5519766;26;20001;-57
2024/04/08 06:33:59;;;;;;;3.35;1.10;;;;;;;;;;5521324;26;20020;-49
2024/04/08 06:36:24;;;;;;;4.13;1.30;;;;;;;;;;5517003;26;20048;-51
2024/04/08 06:38:50;;;;;;;3.05;0.90;;;;;;;;;;5521202;26;19998;-53
2024/04/08 06:41:15;;;;;;;2.42;0.80;;;;;;;;;;5522201;26;19997;-53
2024/04/08 06:43:42;;;;;;;4.05;1.00;;;;;;;;;;5521992;26;20127;-49
2024/04/08 06:46:07;;;;;;;3.13;1.02;;;;;;;;;;5488579;26;20008;-54
2024/04/08 06:48:33;;;;;;;3.03;0.85;;;;;;;;;;5521980;26;20354;-50
2024/04/08 06:50:58;;;;;;;2.72;1.05;;;;;;;;;;5521531;26;20001;-51
2024/04/08 06:53:24;;;;;;;2.58;1.00;;;;;;;;;;5520937;26;20667;-49
2024/04/08 06:55:49;;;;;;;3.60;0.98;;;;;;;;;;5521744;26;20001;-51
2024/04/08 06:58:18;;;;;;;2.70;1.15;;;;;;;;;;5521674;26;20051;-51
2024/04/08 07:00:45;;;;;;;3.75;0.95;;;;;;;;;;5521885;26;20013;-61
2024/04/08 07:03:10;;;;;;;3.38;0.90;;;;;;;;;;5483047;26;20010;-60
2024/04/08 07:05:36;;;;;;;7.68;1.10;;;;;;;;;;5521688;26;20069;-60
2024/04/08 07:08:01;;;;;;;5.20;1.10;;;;;;;;;;5521349;26;20014;-58
2024/04/08 07:10:27;;;;;;;2.83;1.00;;;;;;;;;;5520968;26;20009;-60
2024/04/08 07:12:52;;;;;;;4.07;0.90;;;;;;;;;;5521246;26;20070;-52
2024/04/08 07:15:19;;;;;;;4.88;1.00;;;;;;;;;;5521566;26;20011;-49
2024/04/08 07:17:44;;;;;;;2.45;1.00;;;;;;;;;;5520703;26;20001;-49
2024/04/08 07:20:11;;;;;;;3.25;0.75;;;;;;;;;;5521032;26;19998;-50
2024/04/08 07:22:36;;;;;;;3.70;0.80;;;;;;;;;;5521425;26;20013;-60
2024/04/08 07:25:03;;;;;;;4.32;0.90;;;;;;;;;;5488151;26;20001;-55
2024/04/08 07:27:28;;;;;;;2.55;0.90;;;;;;;;;;5520849;26;20037;-59
2024/04/08 07:29:53;;;;;;;7.25;1.02;;;;;;;;;;5520901;26;20016;-58
2024/04/08 07:32:19;;;;;;;2.67;0.77;;;;;;;;;;5521256;26;20037;-60
2024/04/08 07:34:44;;;;;;;2.30;0.95;;;;;;;;;;5524312;26;20592;-53
2024/04/08 07:37:10;;;;;;;3.13;0.90;;;;;;;;;;5524573;26;20013;-51
2024/04/08 07:39:35;;;;;;;4.53;1.15;;;;;;;;;;5524692;26;20004;-54
2024/04/08 07:42:00;;;;;;;3.75;1.10;;;;;;;;;;5523600;26;20001;-52
2024/04/08 07:44:27;;;;;;;6.40;1.13;;;;;;;;;;5524666;26;20098;-50
2024/04/08 07:46:53;;;;;;;4.60;0.90;;;;;;;;;;5521880;26;19994;-54
2024/04/08 07:49:19;;;;;;;4.18;1.00;;;;;;;;;;5524083;26;20397;-55
2024/04/08 07:51:44;;;;;;;3.88;0.95;;;;;;;;;;5523861;26;20073;-52
2024/04/08 07:54:10;;;;;;;4.00;1.00;;;;;;;;;;5523537;26;20033;-51
2024/04/08 07:56:35;;;;;;;2.15;0.88;;;;;;;;;;5524014;26;20009;-55
2024/04/08 07:59:00;;;;;;;5.68;2.08;;;;;;;;;;5527179;25;19997;-52
2024/04/08 08:01:26;;;;;;;3.55;0.95;;;;;;;;;;5524124;26;20459;-50
2024/04/08 08:03:51;;;;;;;7.28;1.10;;;;;;;;;;5524623;26;20657;-54
2024/04/08 08:06:16;;;;;;;3.50;1.20;;;;;;;;;;5521461;26;20451;-52
2024/04/08 08:08:42;;;;;;;4.07;0.80;;;;;;;;;;5553769;25;20005;-52
2024/04/08 08:11:08;;;;;;;2.80;0.88;;;;;;;;;;5512607;26;20708;-64
2024/04/08 08:13:34;;;;;;;3.47;1.02;;;;;;;;;;5516607;26;20001;-58
2024/04/08 08:15:59;;;;;;;4.43;1.10;;;;;;;;;;5522871;26;20076;-59
2024/04/08 08:18:25;;;;;;;3.55;0.95;;;;;;;;;;5485094;26;20460;-61
2024/04/08 08:20:51;;;;;;;6.85;1.05;;;;;;;;;;5483495;26;19994;-59
2024/04/08 08:23:17;;;;;;;2.63;1.05;;;;;;;;;;5512939;26;20001;-61
2024/04/08 08:25:42;;;;;;;3.75;1.08;;;;;;;;;;5522851;26;19998;-60
2024/04/08 08:28:07;;;;;;;4.10;1.13;;;;;;;;;;5517349;25;20017;-60
2024/04/08 08:30:36;;;;;;;2.72;0.90;;;;;;;;;;5522201;26;20012;-59
2024/04/08 08:33:02;;;;;;;4.32;1.02;;;;;;;;;;5522188;26;20016;-61
2024/04/08 08:35:27;;;;;;;3.05;1.02;;;;;;;;;;5517218;25;20013;-57
2024/04/08 08:37:53;;;;;;;2.67;0.88;;;;;;;;;;5521984;26;20008;-58
2024/04/08 08:40:20;;;;;;;6.85;1.00;;;;;;;;;;5519417;26;19994;-58
2024/04/08 08:42:50;;;;;;;4.13;1.27;;;;;;;;;;5523428;26;20077;-61
2024/04/08 08:45:16;;;;;;;3.42;1.30;;;;;;;;;;5445112;26;20013;-60
2024/04/08 08:47:41;;;;;;;4.35;1.20;;;;;;;;;;5488611;26;20001;-62
2024/04/08 08:50:08;;;;;;;5.43;0.90;;;;;;;;;;5523155;26;20005;-62
2024/04/08 08:52:34;;;;;;;3.28;1.02;;;;;;;;;;5522449;26;20001;-58
2024/04/08 08:54:59;;;;;;;3.35;1.15;;;;;;;;;;5522698;26;20694;-55
2024/04/08 08:57:25;;;;;;;2.85;0.90;;;;;;;;;;5523075;26;20327;-51
2024/04/08 08:59:50;;;;;;;2.95;1.10;;;;;;;;;;5490950;26;20093;-53
2024/04/08 09:02:16;;;;;;;2.60;1.00;;;;;;;;;;5520355;26;20013;-61
2024/04/08 09:04:41;;;;;;;4.10;1.30;;;;;;;;;;5523049;26;19997;-62
2024/04/08 09:07:07;;;;;;;4.40;0.93;;;;;;;;;;5522579;26;20003;-57
2024/04/08 09:09:33;;;;;;;2.33;0.88;;;;;;;;;;5453435;26;20004;-61
2024/04/08 09:11:58;;;;;;;2.67;0.95;;;;;;;;;;5513951;26;19994;-54
2024/04/08 09:14:24;;;;;;;2.35;0.82;;;;;;;;;;5523008;26;20539;-58
2024/04/08 09:16:51;;;;;;;3.75;1.27;;;;;;;;;;5521976;26;20012;-63
2024/04/08 09:19:17;;;;;;;4.28;1.08;;;;;;;;;;5522709;26;20463;-56
2024/04/08 09:21:42;;;;;;;3.38;1.00;;;;;;;;;;5522544;26;20001;-57
2024/04/08 09:24:08;;;;;;;3.05;1.05;;;;;;;;;;5522177;26;20046;-56
2024/04/08 09:26:34;;;;;;;2.58;0.95;;;;;;;;;;5522168;26;20005;-51
2024/04/08 09:29:00;;;;;;;3.22;1.08;;;;;;;;;;5522593;26;20002;-51
2024/04/08 09:31:27;;;;;;;2.20;0.80;;;;;;;;;;5522439;26;20729;-52
2024/04/08 09:33:52;;;;;;;2.88;1.00;;;;;;;;;;5489278;26;20004;-52
2024/04/08 09:36:18;;;;;;;4.22;1.00;;;;;;;;;;5522674;26;20009;-52
2024/04/08 09:38:45;;;;;;;2.85;0.98;;;;;;;;;;5489990;26;20013;-53
2024/04/08 09:41:12;;;;;;;3.03;1.00;;;;;;;;;;5482721;26;20006;-51
2024/04/08 09:43:38;;;;;;;4.65;0.90;;;;;;;;;;5470596;26;20001;-59
2024/04/08 09:46:04;;;;;;;4.18;1.08;;;;;;;;;;5521835;26;19993;-59
2024/04/08 09:48:31;;;;;;;4.55;1.08;;;;;;;;;;5485783;26;20671;-61
2024/04/08 09:50:58;;;;;;;3.50;1.10;;;;;;;;;;5485296;26;20009;-61
2024/04/08 09:53:23;;;;;;;3.47;0.90;;;;;;;;;;5488626;26;20008;-60
2024/04/08 09:55:53;;;;;;;2.47;0.77;;;;;;;;;;5520199;26;20013;-63
2024/04/08 09:58:20;;;;;;;3.08;1.05;;;;;;;;;;5519706;25;20064;-61
2024/04/08 10:00:46;;;;;;;4.18;1.10;;;;;;;;;;5481843;26;20779;-59
2024/04/08 10:03:15;;;;;;;2.13;0.88;;;;;;;;;;5479343;26;20008;-61
2024/04/08 10:05:41;;;;;;;2.10;0.90;;;;;;;;;;5487242;26;20007;-61
2024/04/08 10:08:06;;;;;;;2.85;0.93;;;;;;;;;;5520405;26;20325;-61
2024/04/08 10:10:32;;;;;;;3.47;0.90;;;;;;;;;;5519593;26;20006;-61
2024/04/08 10:12:58;;;;;;;3.17;0.90;;;;;;;;;;5520174;26;19997;-61
2024/04/08 10:15:31;;;;;;;3.78;1.08;;;;;;;;;;5521589;26;20349;-56
2024/04/08 10:17:56;;;;;;;2.20;0.90;;;;;;;;;;5520094;26;20011;-60
2024/04/08 10:20:21;;;;;;;4.70;1.10;;;;;;;;;;5520423;26;20009;-61
2024/04/08 10:22:48;;;;;;;2.53;0.80;;;;;;;;;;5520733;26;20001;-61
2024/04/08 10:25:38;;;;;;;3.13;0.90;;;;;;;;;;5521289;26;20001;-59
2024/04/08 10:28:15;;;;;;;4.63;1.55;;;;;;;;;;5516279;26;20029;-59
2024/04/08 10:30:42;;;;;;;4.10;1.10;;;;;;;;;;5487857;26;19998;-61
2024/04/08 10:33:07;;;;;;;3.88;1.10;;;;;;;;;;5448426;26;20083;-64
2024/04/08 10:35:33;;;;;;;3.28;0.90;;;;;;;;;;5482545;26;20493;-55
2024/04/08 10:37:58;;;;;;;2.42;0.73;;;;;;;;;;5510106;26;20700;-61
2024/04/08 10:40:24;;;;;;;2.60;0.90;;;;;;;;;;5520439;26;20009;-57
2024/04/08 10:42:55;;;;;;;4.22;1.00;;;;;;;;;;5520060;26;20543;-61
2024/04/08 10:45:21;;;;;;;1.80;0.80;;;;;;;;;;5482237;25;20005;-61
2024/04/08 10:47:46;;;;;;;3.17;0.90;;;;;;;;;;5521033;26;20050;-61
2024/04/08 10:50:12;;;;;;;2.50;0.80;;;;;;;;;;5517519;26;20012;-60
2024/04/08 10:52:39;;;;;;;2.20;0.80;;;;;;;;;;5520179;26;20034;-61
2024/04/08 10:55:05;;;;;;;2.30;0.82;;;;;;;;;;5456415;26;20108;-61
2024/04/08 10:57:31;;;;;;;5.30;0.98;;;;;;;;;;5488593;26;20964;-56
2024/04/08 10:59:56;;;;;;;6.13;1.08;;;;;;;;;;5521279;25;19994;-58
2024/04/08 11:02:21;;;;;;;2.38;1.00;;;;;;;;;;5514745;26;20005;-57
2024/04/08 11:04:47;;;;;;;3.10;1.17;;;;;;;;;;5518930;26;19997;-61
2024/04/08 11:07:12;;;;;;;2.38;0.80;;;;;;;;;;5520180;26;20066;-57
2024/04/08 11:09:38;;;;;;;2.00;0.73;;;;;;;;;;5516314;26;19997;-60
2024/04/08 11:12:04;;;;;;;3.28;1.00;;;;;;;;;;5520576;26;20005;-59
2024/04/08 11:14:29;;;;;;;2.33;0.85;;;;;;;;;;5520818;26;20102;-62
2024/04/08 11:16:59;;;;;;;2.15;0.73;;;;;;;;;;5520401;26;19998;-50
2024/04/08 11:19:25;;;;;;;4.32;0.95;;;;;;;;;;5520843;26;20386;-50
2024/04/08 11:21:50;;;;;;;2.58;0.95;;;;;;;;;;5520858;26;20095;-52
2024/04/08 11:24:15;;;;;;;3.30;0.90;;;;;;;;;;5487689;26;20006;-50
2024/04/08 11:26:41;;;;;;;4.22;0.98;;;;;;;;;;5488291;26;19997;-52
2024/04/08 11:29:07;;;;;;;2.42;0.73;;;;;;;;;;5520358;26;19997;-60
2024/04/08 11:31:32;;;;;;;4.97;1.02;;;;;;;;;;5519482;26;20005;-60
2024/04/08 11:33:58;;;;;;;3.28;1.00;;;;;;;;;;5520092;26;20005;-58
2024/04/08 11:36:23;;;;;;;2.83;1.00;;;;;;;;;;5520423;26;20006;-61
2024/04/08 11:38:49;;;;;;;2.28;0.90;;;;;;;;;;5519665;26;20009;-57
2024/04/08 11:41:15;;;;;;;2.47;0.80;;;;;;;;;;5481378;26;19994;-49
2024/04/08 11:43:40;;;;;;;3.53;0.90;;;;;;;;;;5518941;26;20580;-52
2024/04/08 11:46:06;;;;;;;4.63;1.27;;;;;;;;;;5481586;26;20071;-52
2024/04/08 11:48:31;;;;;;;3.60;0.98;;;;;;;;;;5516919;26;20431;-52
2024/04/08 11:50:57;;;;;;;4.25;0.93;;;;;;;;;;5520248;26;20046;-49
2024/04/08 11:53:22;;;;;;;9.13;1.17;;;;;;;;;;5505956;25;20001;-59
2024/04/08 11:55:48;;;;;;;3.63;0.90;;;;;;;;;;5506353;26;20001;-60
2024/04/08 11:58:13;;;;;;;2.78;0.95;;;;;;;;;;5516631;25;20009;-61
2024/04/08 12:00:39;;;;;;;3.58;0.80;;;;;;;;;;5516112;25;20071;-57
2024/04/08 12:03:04;;;;;;;2.67;0.90;;;;;;;;;;5517583;26;19998;-60
2024/04/08 12:05:30;;;;;;;3.13;0.95;;;;;;;;;;5520001;26;20082;-56
2024/04/08 12:07:55;;;;;;;1.73;0.80;;;;;;;;;;5518735;26;20009;-59
2024/04/08 12:10:21;;;;;;;4.13;1.08;;;;;;;;;;5519072;25;20041;-60
2024/04/08 12:12:46;;;;;;;3.22;0.80;;;;;;;;;;5518381;26;20020;-60
2024/04/08 12:15:12;;;;;;;2.47;0.80;;;;;;;;;;5516745;26;20065;-59
2024/04/08 12:17:38;;;;;;;4.85;0.85;;;;;;;;;;5509191;26;20069;-56
2024/04/08 12:20:04;;;;;;;2.15;0.90;;;;;;;;;;5507298;26;20006;-61
2024/04/08 12:22:30;;;;;;;2.40;0.90;;;;;;;;;;5522402;26;20003;-60
2024/04/08 12:24:55;;;;;;;2.70;0.80;;;;;;;;;;5522649;26;19997;-59
2024/04/08 12:27:22;;;;;;;1.60;0.60;;;;;;;;;;5508802;25;20070;-61
2024/04/08 12:29:48;;;;;;;2.95;0.82;;;;;;;;;;5522650;26;20073;-55
2024/04/08 12:32:14;;;;;;;1.83;0.75;;;;;;;;;;5522522;26;20005;-60
2024/04/08 12:34:39;;;;;;;5.00;1.20;;;;;;;;;;5522348;26;20041;-56
2024/04/08 12:37:04;;;;;;;2.28;0.80;;;;;;;;;;5522351;26;20042;-59
2024/04/08 12:39:30;;;;;;;2.63;0.90;;;;;;;;;;5522228;26;20001;-58
2024/04/08 12:41:55;;;;;;;3.25;0.95;;;;;;;;;;5517218;25;20009;-60
2024/04/08 12:44:20;;;;;;;2.72;1.02;;;;;;;;;;5518103;25;19994;-61
2024/04/08 12:46:47;;;;;;;3.45;0.80;;;;;;;;;;5516182;26;19997;-50
2024/04/08 12:49:14;;;;;;;2.88;0.82;;;;;;;;;;5522135;25;19997;-51
2024/04/08 12:51:39;;;;;;;3.15;0.80;;;;;;;;;;5485209;26;20468;-53
2024/04/08 12:54:05;;;;;;;3.15;1.17;;;;;;;;;;5522531;26;20033;-59
2024/04/08 12:56:30;;;;;;;2.47;0.73;;;;;;;;;;5522269;26;20002;-58
2024/04/08 12:58:58;;;;;;;3.88;0.80;;;;;;;;;;5486483;26;20428;-60
2024/04/08 13:01:24;;;;;;;1.98;0.90;;;;;;;;;;5530688;25;20017;-61
2024/04/08 13:03:50;;;;;;;1.85;0.80;;;;;;;;;;5519782;26;19997;-61
2024/04/08 13:06:15;;;;;;;2.60;0.90;;;;;;;;;;5516737;26;20011;-60
2024/04/08 13:08:40;;;;;;;3.10;0.80;;;;;;;;;;5522301;26;20001;-59
2024/04/08 13:11:06;;;;;;;1.85;0.80;;;;;;;;;;5522045;26;19997;-58
2024/04/08 13:13:41;;;;;;;1.75;0.70;;;;;;;;;;5521955;26;20009;-57
2024/04/08 13:16:10;;;;;;;3.13;0.90;;;;;;;;;;5483673;26;20337;-59
2024/04/08 13:18:40;;;;;;;2.63;0.80;;;;;;;;;;5483746;26;20001;-50
2024/04/08 13:21:06;;;;;;;2.70;0.85;;;;;;;;;;5490172;26;20009;-49
2024/04/08 13:23:31;;;;;;;2.05;0.80;;;;;;;;;;5489325;26;20398;-50
2024/04/08 13:25:56;;;;;;;3.42;0.88;;;;;;;;;;5522717;26;20026;-50
2024/04/08 13:28:23;;;;;;;2.55;0.80;;;;;;;;;;5522518;26;20378;-49
2024/04/08 13:30:48;;;;;;;2.65;0.82;;;;;;;;;;5521087;26;19998;-48
2024/04/08 13:33:13;;;;;;;1.85;0.80;;;;;;;;;;5522295;26;20671;-52
2024/04/08 13:35:39;;;;;;;2.83;0.80;;;;;;;;;;5522576;26;20314;-50
2024/04/08 13:38:04;;;;;;;1.92;0.60;;;;;;;;;;5521883;26;20001;-49
2024/04/08 13:40:29;;;;;;;1.83;0.73;;;;;;;;;;5522109;26;20395;-52
2024/04/08 13:42:55;;;;;;;3.88;0.75;;;;;;;;;;5537036;25;20069;-50
2024/04/08 13:45:20;;;;;;;1.30;0.60;;;;;;;;;;5532806;25;20004;-52
2024/04/08 13:47:46;;;;;;;1.90;0.50;;;;;;;;;;5537693;25;19992;-52
2024/04/08 13:50:11;;;;;;;2.58;0.75;;;;;;;;;;5508013;25;19997;-53
2024/04/08 13:52:37;;;;;;;3.80;0.93;;;;;;;;;;5524863;25;20041;-51
2024/04/08 13:55:04;;;;;;;2.80;0.73;;;;;;;;;;5512933;26;20017;-58
2024/04/08 13:57:29;;;;;;;2.22;0.88;;;;;;;;;;5519872;26;20066;-59
2024/04/08 13:59:55;;;;;;;1.25;0.50;;;;;;;;;;5520804;26;20009;-55
2024/04/08 14:02:20;;;;;;;0.93;0.50;;;;;;;;;;5519344;26;19998;-56
2024/04/08 14:04:45;;;;;;;1.38;0.63;;;;;;;;;;5521515;26;20012;-60
2024/04/08 14:07:11;;;;;;;0.85;0.60;;;;;;;;;;5520823;26;20002;-49
2024/04/08 14:09:37;;;;;;;2.67;0.70;;;;;;;;;;5520786;26;20001;-52
2024/04/08 14:12:03;;;;;;;1.75;0.63;;;;;;;;;;5518620;26;20012;-52
2024/04/08 14:14:28;;;;;;;3.47;0.95;;;;;;;;;;5521305;26;19997;-49
2024/04/08 14:16:53;;;;;;;2.80;0.68;;;;;;;;;;5520951;26;20452;-55
2024/04/08 14:19:18;;;;;;;2.92;0.90;;;;;;;;;;5520156;26;20541;-53
2024/04/08 14:21:44;;;;;;;1.92;0.80;;;;;;;;;;5521004;26;20572;-49
2024/04/08 14:24:09;;;;;;;3.17;0.70;;;;;;;;;;5521252;26;20324;-50
2024/04/08 14:26:34;;;;;;;1.50;0.63;;;;;;;;;;5520265;26;19997;-52
2024/04/08 14:29:00;;;;;;;2.60;0.88;;;;;;;;;;5520576;26;20368;-50
2024/04/08 14:31:26;;;;;;;3.38;0.73;;;;;;;;;;5521183;26;20033;-53
2024/04/08 14:33:53;;;;;;;2.80;0.63;;;;;;;;;;5520147;26;19997;-52